createdAt,value
2022-08-24T00:03:03.175Z,4.25
2022-08-24T00:09:05.791Z,4.63
2022-08-24T00:15:09.674Z,7.40
2022-08-24T00:21:13.034Z,3.78
2022-08-24T00:27:15.598Z,6.38
2022-08-24T00:33:18.423Z,4.25
2022-08-24T00:45:25.203Z,4.30
2022-08-24T00:51:31.633Z,9.20
2022-08-24T00:57:38.369Z,7.53
2022-08-24T01:03:42.806Z,11.32
2022-08-24T01:09:44.966Z,6.30
2022-08-24T01:15:50.169Z,6.40
2022-08-24T01:22:29.902Z,7.72
2022-08-24T01:28:32.772Z,10.15
2022-08-24T01:34:35.964Z,9.48
2022-08-24T01:40:47.283Z,7.47
2022-08-24T01:46:54.049Z,11.07
2022-08-24T01:53:14.506Z,7.57
2022-08-24T01:59:17.475Z,5.97
2022-08-24T02:05:20.712Z,9.85
2022-08-24T02:11:23.085Z,10.57
2022-08-24T02:17:25.279Z,13.05
2022-08-24T02:23:30.202Z,9.80
2022-08-24T02:29:32.628Z,12.85
2022-08-24T02:41:37.919Z,9.43
2022-08-24T02:47:40.759Z,5.40
2022-08-24T02:53:43.996Z,6.85
2022-08-24T02:59:46.424Z,9.82
2022-08-24T03:05:49.109Z,20.75
2022-08-24T03:17:54.033Z,6.95
2022-08-24T03:23:57.668Z,7.40
2022-08-24T03:30:00.019Z,11.73
2022-08-24T03:36:03.262Z,10.32
2022-08-24T03:42:06.849Z,7.97
2022-08-24T03:48:09.219Z,21.27
2022-08-24T04:00:16.360Z,5.30
2022-08-24T04:06:26.263Z,7.35
2022-08-24T04:12:29.459Z,10.65
2022-08-24T04:18:32.070Z,5.05
2022-08-24T04:24:34.534Z,7.63
2022-08-24T04:30:43.499Z,7.78
2022-08-24T04:36:47.443Z,13.73
2022-08-24T04:42:50.915Z,9.35
2022-08-24T04:48:53.080Z,8.77
2022-08-24T04:54:55.557Z,6.68
2022-08-24T05:01:01.478Z,12.88
2022-08-24T05:07:04.327Z,6.30
2022-08-24T05:13:09.032Z,5.97
2022-08-24T05:19:12.636Z,10.05
2022-08-24T05:25:15.138Z,12.15
2022-08-24T05:31:20.982Z,11.20
2022-08-24T05:37:26.805Z,7.80
2022-08-24T05:43:44.544Z,7.80
2022-08-24T05:49:48.239Z,17.35
2022-08-24T05:55:52.163Z,15.45
2022-08-24T06:01:54.667Z,6.10
2022-08-24T06:07:57.288Z,7.72
2022-08-24T06:14:07.528Z,12.50
2022-08-24T06:20:11.904Z,15.48
2022-08-24T06:26:34.670Z,14.27
2022-08-24T06:32:37.906Z,14.38
2022-08-24T06:38:40.588Z,19.45
2022-08-24T06:44:49.192Z,20.13
2022-08-24T06:50:58.014Z,16.25
2022-08-24T06:57:00.427Z,18.13
2022-08-24T07:03:03.474Z,12.05
2022-08-24T07:09:06.604Z,12.82
2022-08-24T07:15:16.274Z,6.68
2022-08-24T07:21:21.249Z,18.58
2022-08-24T07:27:25.696Z,17.83
2022-08-24T07:33:28.081Z,24.88
2022-08-24T07:39:31.352Z,31.35
2022-08-24T07:45:35.021Z,19.83
2022-08-24T07:51:37.938Z,15.35
2022-08-24T07:57:46.575Z,11.95
2022-08-24T08:03:50.112Z,10.52
2022-08-24T08:09:53.604Z,20.05
2022-08-24T08:15:59.830Z,20.38
2022-08-24T08:22:20.919Z,24.73
2022-08-24T08:28:42.976Z,16.35
2022-08-24T08:34:46.409Z,24.13
2022-08-24T08:41:26.533Z,29.38
2022-08-24T08:47:58.318Z,14.63
2022-08-24T08:54:03.350Z,28.42
2022-08-24T09:00:16.701Z,31.83
2022-08-24T09:06:32.918Z,27.67
2022-08-24T09:12:54.754Z,36.67
2022-08-24T09:19:12.834Z,28.35
2022-08-24T09:25:44.996Z,29.20
2022-08-24T09:31:53.551Z,32.00
2022-08-24T09:38:24.282Z,25.25
2022-08-24T09:45:11.325Z,25.67
2022-08-24T09:51:49.207Z,23.30
2022-08-24T09:58:19.412Z,27.23
2022-08-24T10:04:37.006Z,24.02
2022-08-24T10:10:58.107Z,21.45
2022-08-24T10:17:16.172Z,19.95
2022-08-24T10:23:56.227Z,25.98
2022-08-24T10:30:24.509Z,40.97
2022-08-24T10:37:06.111Z,28.65
2022-08-24T10:43:44.998Z,29.70
2022-08-24T10:50:19.618Z,41.05
2022-08-24T10:56:33.632Z,23.70
2022-08-24T11:02:38.417Z,34.05
2022-08-24T11:08:56.469Z,38.50
2022-08-24T11:15:05.615Z,38.78
2022-08-24T11:21:08.211Z,18.02
2022-08-24T11:27:16.943Z,44.03
2022-08-24T11:33:28.587Z,29.48
2022-08-24T11:39:36.077Z,34.50
2022-08-24T11:46:04.187Z,29.08
2022-08-24T11:52:19.756Z,36.70
2022-08-24T11:58:57.835Z,20.02
2022-08-24T12:05:23.188Z,36.15
2022-08-24T12:11:46.625Z,31.08
2022-08-24T12:18:06.937Z,22.20
2022-08-24T12:24:14.768Z,32.05
2022-08-24T12:30:18.346Z,36.53
2022-08-24T12:36:32.587Z,21.90
2022-08-24T12:42:38.887Z,29.38
2022-08-24T12:49:18.116Z,33.88
2022-08-24T12:55:52.318Z,34.78
2022-08-24T13:02:24.161Z,34.95
2022-08-24T13:08:41.759Z,37.90
2022-08-24T13:14:50.373Z,34.30
2022-08-24T13:20:56.856Z,20.25
2022-08-24T13:27:18.739Z,34.13
2022-08-24T13:33:33.168Z,29.02
2022-08-24T13:39:44.085Z,36.97
2022-08-24T13:46:03.413Z,44.50
2022-08-24T13:52:33.233Z,22.60
2022-08-24T13:58:53.126Z,20.67
2022-08-24T14:05:09.240Z,28.65
2022-08-24T14:11:34.650Z,28.00
2022-08-24T14:17:54.078Z,30.15
2022-08-24T14:24:11.535Z,20.50
2022-08-24T14:30:19.715Z,32.58
2022-08-24T14:36:31.554Z,47.53
2022-08-24T14:42:37.766Z,28.70
2022-08-24T14:48:42.951Z,69.80
2022-08-24T14:55:09.247Z,30.13
2022-08-24T15:01:49.712Z,26.90
2022-08-24T15:07:53.773Z,37.67
2022-08-24T15:13:58.392Z,39.42
2022-08-24T15:20:15.824Z,27.50
2022-08-24T15:26:33.058Z,43.70
2022-08-24T15:33:24.918Z,41.10
2022-08-24T15:39:28.234Z,34.65
2022-08-24T15:45:32.231Z,34.65
2022-08-24T15:51:56.200Z,24.23
2022-08-24T15:58:30.313Z,34.33
2022-08-24T16:04:43.601Z,28.63
2022-08-24T16:10:57.677Z,27.08
2022-08-24T16:17:02.203Z,18.85
2022-08-24T16:23:31.782Z,36.03
2022-08-24T16:29:37.205Z,26.80
2022-08-24T16:35:39.507Z,27.23
2022-08-24T16:41:43.270Z,37.97
2022-08-24T16:47:47.229Z,21.90
2022-08-24T16:53:49.590Z,37.58
2022-08-24T16:59:53.070Z,31.13
2022-08-24T17:05:57.114Z,42.03
2022-08-24T17:11:59.720Z,24.60
2022-08-24T17:18:08.441Z,24.33
2022-08-24T17:24:11.999Z,29.88
2022-08-24T17:30:17.435Z,24.00
2022-08-24T17:36:23.641Z,40.25
2022-08-24T17:42:49.504Z,35.10
2022-08-24T17:48:48.986Z,31.13
2022-08-24T17:54:51.517Z,20.10
2022-08-24T18:00:53.700Z,23.88
2022-08-24T18:07:01.770Z,24.50
2022-08-24T18:13:04.782Z,29.63
2022-08-24T18:19:07.348Z,30.30
2022-08-24T18:25:12.829Z,31.88
2022-08-24T18:31:16.098Z,44.25
2022-08-24T18:37:19.672Z,36.72
2022-08-24T18:43:24.253Z,27.02
2022-08-24T18:49:26.921Z,27.30
2022-08-24T18:55:29.287Z,29.45
2022-08-24T19:01:53.924Z,30.55
2022-08-24T19:07:56.611Z,22.05
2022-08-24T19:14:00.341Z,32.20
2022-08-24T19:20:03.712Z,17.85
2022-08-24T19:26:06.473Z,11.68
2022-08-24T19:32:20.195Z,17.98
2022-08-24T19:38:26.194Z,27.75
2022-08-24T19:44:51.973Z,20.40
2022-08-24T19:50:56.000Z,37.83
2022-08-24T19:57:00.159Z,31.55
2022-08-24T20:03:04.909Z,27.33
2022-08-24T20:09:08.011Z,37.35
2022-08-24T20:15:10.531Z,27.08
2022-08-24T20:21:12.899Z,22.85
2022-08-24T20:27:19.966Z,49.40
2022-08-24T20:33:24.002Z,19.02
2022-08-24T20:39:28.947Z,25.42
2022-08-24T20:45:31.347Z,47.63
2022-08-24T20:51:37.252Z,26.73
2022-08-24T20:57:50.432Z,22.80
2022-08-24T21:03:53.092Z,20.37
2022-08-24T21:09:55.371Z,24.45
2022-08-24T21:15:57.863Z,17.20
2022-08-24T21:22:00.190Z,46.05
2022-08-24T21:28:03.510Z,33.30
2022-08-24T21:34:24.398Z,23.75
2022-08-24T21:40:29.218Z,40.47
2022-08-24T21:46:37.768Z,42.22
2022-08-24T21:52:42.211Z,23.40
2022-08-24T21:58:46.778Z,44.88
2022-08-24T22:04:56.131Z,25.20
2022-08-24T22:10:59.283Z,60.00
2022-08-24T22:17:02.899Z,21.58
2022-08-24T22:23:05.771Z,39.53
2022-08-24T22:29:12.103Z,42.55
2022-08-24T22:35:14.743Z,27.67
2022-08-24T22:41:17.683Z,27.58
2022-08-24T22:47:20.102Z,38.60
2022-08-24T22:53:22.821Z,27.60
2022-08-24T22:59:37.686Z,41.90
2022-08-24T23:05:39.963Z,46.20
2022-08-24T23:11:42.766Z,35.13
2022-08-24T23:17:45.634Z,27.75
2022-08-24T23:23:48.713Z,40.15
2022-08-24T23:29:53.174Z,30.60
2022-08-24T23:35:55.651Z,21.48
2022-08-24T23:42:02.447Z,28.95
2022-08-24T23:48:05.037Z,25.63
2022-08-24T23:54:10.301Z,38.67
